Time;durP1;ratioP1;P1;durP2;ratioP2;P2;SDS_P1;SDS_P2;PMS_P1;PMS_P2;Temp;Humidity;BMP_temperature;BMP_pressure;BME280_temperature;BME280_humidity;BME280_pressure;Samples;Min_cycle;Max_cycle;Signal;HPM_P1;HPM_P2
2021/08/02 00:01:46;;;;;;;;;;;;;;;21.38;58.15;100258.63;5068615;27;1260;-57
2021/08/02 00:04:12;;;;;;;;;;;;;;;21.49;57.93;100254.44;5160352;27;1913;-53
2021/08/02 00:06:46;;;;;;;;;;;;;;;21.25;58.75;100260.34;5159468;27;1173;-58
2021/08/02 00:09:11;;;;;;;;;;;;;;;21.11;57.12;100259.63;5160148;27;729;-42
2021/08/02 00:11:40;;;;;;;;;;;;;;;20.67;59.66;100256.56;5159327;27;961;-52
2021/08/02 00:14:06;;;;;;;;;;;;;;;21.13;59.86;100247.13;5159714;27;778;-41
2021/08/02 00:16:32;;;;;;;;;;;;;;;21.22;59.88;100249.09;5159945;27;783;-42
2021/08/02 00:19:00;;;;;;;;;;;;;;;21.52;59.31;100253.81;5159159;27;754;-55
2021/08/02 00:21:25;;;;;;;;;;;;;;;21.65;59.46;100256.78;5160066;27;814;-41
2021/08/02 00:23:51;;;;;;;;;;;;;;;21.56;59.92;100253.19;5141408;27;1909;-41
2021/08/02 00:26:16;;;;;;;;;;;;;;;21.35;57.76;100253.75;5158843;27;1012;-57
2021/08/02 00:28:41;;;;;;;;;;;;;;;20.68;58.78;100250.75;5140638;27;915;-41
2021/08/02 00:31:07;;;;;;;;;;;;;;;21.00;62.34;100253.56;5140894;27;735;-41
2021/08/02 00:33:32;;;;;;;;;;;;;;;21.39;62.22;100246.41;5159185;27;774;-55
2021/08/02 00:36:08;;;;;;;;;;;;;;;21.77;59.97;100253.41;5141100;27;806;-41
2021/08/02 00:38:49;;;;;;;;;;;;;;;21.69;58.21;100253.06;5140152;27;763;-44
2021/08/02 00:41:19;;;;;;;;;;;;;;;21.29;57.53;100250.25;5139482;27;980;-41
2021/08/02 00:43:45;;;;;;;;;;;;;;;21.18;55.87;100249.75;5140660;27;1990;-41
2021/08/02 00:46:11;;;;;;;;;;;;;;;20.53;55.73;100242.81;5139936;27;1185;-47
2021/08/02 00:48:43;;;;;;;;;;;;;;;20.37;55.61;100236.84;5140946;27;742;-41
2021/08/02 00:51:11;;;;;;;;;;;;;;;20.70;54.67;100231.09;5140874;27;1243;-40
2021/08/02 00:53:36;;;;;;;;;;;;;;;20.79;55.31;100245.78;5116979;27;1197;-41
2021/08/02 00:56:02;;;;;;;;;;;;;;;21.09;55.64;100237.03;5102861;27;1082;-56
2021/08/02 00:58:29;;;;;;;;;;;;;;;21.18;56.10;100233.16;5117203;28;795;-41
2021/08/02 01:00:55;;;;;;;;;;;;;;;21.40;56.07;100228.69;5099426;28;1157;-41
2021/08/02 01:03:20;;;;;;;;;;;;;;;21.31;56.63;100227.84;5099171;28;1982;-41
2021/08/02 01:05:49;;;;;;;;;;;;;;;21.30;57.29;100228.97;5125005;27;1086;-41
2021/08/02 01:08:24;;;;;;;;;;;;;;;21.31;57.35;100225.88;5138039;27;774;-41
2021/08/02 01:10:51;;;;;;;;;;;;;;;20.83;55.88;100221.91;5137888;27;759;-42
2021/08/02 01:13:18;;;;;;;;;;;;;;;20.75;59.44;100219.09;5157445;27;954;-48
2021/08/02 01:15:47;;;;;;;;;;;;;;;21.12;59.40;100222.56;5140197;27;1129;-56
2021/08/02 01:18:13;;;;;;;;;;;;;;;21.38;59.07;100222.66;5158757;27;887;-41
2021/08/02 01:20:41;;;;;;;;;;;;;;;21.66;58.76;100237.09;5158524;27;1536;-46
2021/08/02 01:23:06;;;;;;;;;;;;;;;21.65;59.04;100232.69;5158652;27;1913;-52
2021/08/02 01:25:34;;;;;;;;;;;;;;;21.67;59.51;100229.59;5158496;27;779;-56
2021/08/02 01:28:14;;;;;;;;;;;;;;;21.44;58.16;100226.91;5158076;27;1056;-56
2021/08/02 01:30:44;;;;;;;;;;;;;;;21.02;59.12;100229.16;5158681;27;849;-41
2021/08/02 01:33:15;;;;;;;;;;;;;;;21.16;61.92;100229.88;5158209;27;815;-41
2021/08/02 01:35:41;;;;;;;;;;;;;;;21.52;60.96;100226.16;5158166;27;809;-50
2021/08/02 01:38:07;;;;;;;;;;;;;;;21.73;60.27;100222.81;5139783;27;1306;-56
2021/08/02 01:40:34;;;;;;;;;;;;;;;21.74;58.80;100224.44;5139845;27;1172;-44
2021/08/02 01:43:04;;;;;;;;;;;;;;;21.48;58.30;100232.63;5157483;27;1976;-50
2021/08/02 01:45:30;;;;;;;;;;;;;;;21.43;56.16;100233.56;5139669;27;1336;-44
2021/08/02 01:48:12;;;;;;;;;;;;;;;21.09;54.52;100228.72;5139756;27;806;-55
2021/08/02 01:50:58;;;;;;;;;;;;;;;20.26;56.43;100229.91;5157741;27;807;-58
2021/08/02 01:53:27;;;;;;;;;;;;;;;20.60;54.64;100228.56;5139742;27;1282;-58
2021/08/02 01:56:20;;;;;;;;;;;;;;;20.82;54.69;100231.34;5122674;27;1117;-42
2021/08/02 01:59:05;;;;;;;;;;;;;;;21.31;54.84;100225.09;5136815;27;1481;-43
2021/08/02 02:01:34;;;;;;;;;;;;;;;21.07;56.33;100223.50;5173257;27;1203;-56
2021/08/02 02:04:02;;;;;;;;;;;;;;;21.23;56.44;100225.88;5160076;27;1984;-43
2021/08/02 02:06:34;;;;;;;;;;;;;;;21.40;56.35;100223.16;5140814;27;1358;-41
2021/08/02 02:09:10;;;;;;;;;;;;;;;21.28;57.14;100231.22;5138800;27;875;-55
2021/08/02 02:11:37;;;;;;;;;;;;;;;21.44;56.94;100229.69;5171455;27;869;-42
2021/08/02 02:14:12;;;;;;;;;;;;;;;20.93;57.03;100236.59;5139622;27;1251;-41
2021/08/02 02:16:49;;;;;;;;;;;;;;;20.93;59.22;100231.06;5157251;27;826;-41
2021/08/02 02:19:15;;;;;;;;;;;;;;;21.35;57.72;100242.69;5138842;27;871;-41
2021/08/02 02:21:41;;;;;;;;;;;;;;;21.57;57.18;100235.44;5139702;27;810;-41
2021/08/02 02:24:11;;;;;;;;;;;;;;;21.39;57.43;100243.63;5140084;27;1913;-42
2021/08/02 02:26:38;;;;;;;;;;;;;;;21.35;57.87;100242.69;5157702;27;1008;-42
2021/08/02 02:29:06;;;;;;;;;;;;;;;21.30;58.17;100238.06;5139348;27;818;-54
2021/08/02 02:31:34;;;;;;;;;;;;;;;20.95;57.21;100237.91;5139395;27;766;-43
2021/08/02 02:34:01;;;;;;;;;;;;;;;20.94;59.35;100241.00;5139502;27;1148;-42
2021/08/02 02:36:28;;;;;;;;;;;;;;;21.08;58.76;100246.44;5139184;27;1224;-58
2021/08/02 02:38:54;;;;;;;;;;;;;;;21.30;57.94;100240.84;5157779;27;812;-57
2021/08/02 02:41:20;;;;;;;;;;;;;;;21.50;57.54;100250.53;5138711;27;1097;-54
2021/08/02 02:43:50;;;;;;;;;;;;;;;21.46;57.58;100255.09;5139435;27;1906;-52
2021/08/02 02:46:16;;;;;;;;;;;;;;;21.35;57.97;100249.00;5122356;27;1126;-43
2021/08/02 02:48:43;;;;;;;;;;;;;;;21.30;57.62;100256.63;5138943;27;787;-42
2021/08/02 02:51:08;;;;;;;;;;;;;;;20.94;56.62;100257.56;5121989;27;1164;-42
2021/08/02 02:53:34;;;;;;;;;;;;;;;21.41;58.17;100252.44;5139098;27;1185;-41
2021/08/02 02:56:00;;;;;;;;;;;;;;;21.66;57.31;100248.16;5138854;27;941;-45
2021/08/02 02:58:26;;;;;;;;;;;;;;;21.36;57.96;100252.56;5139034;27;957;-43
2021/08/02 03:00:51;;;;;;;;;;;;;;;21.26;58.26;100258.41;5159239;27;794;-44
2021/08/02 03:03:19;;;;;;;;;;;;;;;20.90;59.38;100256.56;5142744;27;1909;-43
2021/08/02 03:05:44;;;;;;;;;;;;;;;20.81;59.67;100262.84;5160772;27;1442;-42
2021/08/02 03:08:10;;;;;;;;;;;;;;;20.59;59.04;100254.53;5142427;27;1285;-51
2021/08/02 03:10:37;;;;;;;;;;;;;;;20.51;60.29;100248.66;5125660;27;1342;-43
2021/08/02 03:13:02;;;;;;;;;;;;;;;21.05;59.07;100258.94;5142588;27;953;-42
2021/08/02 03:15:28;;;;;;;;;;;;;;;21.31;57.98;100253.53;5161024;27;807;-43
2021/08/02 03:17:53;;;;;;;;;;;;;;;21.30;57.89;100254.66;5160608;27;865;-42
2021/08/02 03:20:20;;;;;;;;;;;;;;;21.34;57.76;100254.88;5160555;27;757;-43
2021/08/02 03:22:50;;;;;;;;;;;;;;;21.06;58.82;100257.81;5160938;27;830;-43
2021/08/02 03:25:34;;;;;;;;;;;;;;;20.96;59.14;100260.84;5142383;27;1926;-41
2021/08/02 03:28:06;;;;;;;;;;;;;;;20.52;58.23;100260.50;5160613;27;969;-42
2021/08/02 03:30:32;;;;;;;;;;;;;;;20.67;60.39;100268.44;5160534;27;746;-42
2021/08/02 03:32:58;;;;;;;;;;;;;;;21.03;59.17;100263.97;5141830;27;731;-44
2021/08/02 03:35:24;;;;;;;;;;;;;;;21.03;58.91;100258.44;5142509;27;774;-42
2021/08/02 03:37:49;;;;;;;;;;;;;;;21.20;58.30;100255.75;5141502;27;868;-43
2021/08/02 03:40:15;;;;;;;;;;;;;;;21.07;58.64;100256.69;5160404;27;862;-42
2021/08/02 03:42:41;;;;;;;;;;;;;;;20.95;59.38;100259.22;5141610;27;1000;-43
2021/08/02 03:45:07;;;;;;;;;;;;;;;20.96;58.77;100261.66;5141445;27;1897;-43
2021/08/02 03:47:32;;;;;;;;;;;;;;;20.48;60.20;100265.84;5123898;27;1319;-42
2021/08/02 03:49:58;;;;;;;;;;;;;;;20.92;59.66;100265.38;5159988;27;800;-42
2021/08/02 03:52:23;;;;;;;;;;;;;;;20.99;59.50;100268.50;5160102;27;742;-43
2021/08/02 03:54:49;;;;;;;;;;;;;;;21.19;58.68;100261.63;5143151;27;1284;-57
2021/08/02 03:57:14;;;;;;;;;;;;;;;21.19;58.78;100269.91;5138998;27;946;-43
2021/08/02 03:59:40;;;;;;;;;;;;;;;21.01;59.93;100277.28;5138975;27;785;-42
2021/08/02 04:02:05;;;;;;;;;;;;;;;20.29;60.45;100265.19;5121617;27;737;-47
2021/08/02 04:04:31;;;;;;;;;;;;;;;20.66;60.86;100266.81;5139757;27;1972;-45
2021/08/02 04:06:56;;;;;;;;;;;;;;;20.59;61.44;100273.88;5156418;27;1010;-45
2021/08/02 04:09:22;;;;;;;;;;;;;;;20.69;61.27;100276.41;5160130;27;802;-44
2021/08/02 04:11:48;;;;;;;;;;;;;;;20.82;60.46;100272.78;5158259;27;934;-45
2021/08/02 04:14:13;;;;;;;;;;;;;;;20.76;60.65;100275.97;5159949;27;775;-45
2021/08/02 04:16:40;;;;;;;;;;;;;;;20.63;61.36;100277.66;5141526;27;1141;-46
2021/08/02 04:19:06;;;;;;;;;;;;;;;20.20;60.79;100275.31;5159272;27;813;-42
2021/08/02 04:21:32;;;;;;;;;;;;;;;20.31;62.64;100268.44;5159747;27;806;-45
2021/08/02 04:23:57;;;;;;;;;;;;;;;20.82;60.96;100267.25;5159457;27;1909;-46
2021/08/02 04:26:23;;;;;;;;;;;;;;;20.94;60.28;100265.88;5158951;27;949;-47
2021/08/02 04:28:55;;;;;;;;;;;;;;;20.88;60.46;100256.88;5159325;27;822;-45
2021/08/02 04:31:20;;;;;;;;;;;;;;;20.69;61.45;100259.84;5159264;27;739;-43
2021/08/02 04:33:46;;;;;;;;;;;;;;;20.57;61.37;100254.06;5159187;27;842;-45
2021/08/02 04:36:12;;;;;;;;;;;;;;;20.15;60.90;100248.66;5159411;27;795;-43
2021/08/02 04:38:37;;;;;;;;;;;;;;;20.38;62.62;100254.22;5159012;27;905;-45
2021/08/02 04:41:03;;;;;;;;;;;;;;;20.69;61.76;100248.78;5158662;27;1013;-43
2021/08/02 04:43:28;;;;;;;;;;;;;;;20.97;60.82;100254.16;5159144;27;1905;-44
2021/08/02 04:45:53;;;;;;;;;;;;;;;20.70;61.65;100252.38;5159103;27;839;-42
2021/08/02 04:48:19;;;;;;;;;;;;;;;20.76;61.70;100246.44;5159360;27;774;-46
2021/08/02 04:50:46;;;;;;;;;;;;;;;20.56;61.46;100249.66;5140070;27;2072;-42
2021/08/02 04:53:11;;;;;;;;;;;;;;;20.21;60.51;100249.38;5158879;27;1161;-43
2021/08/02 04:55:37;;;;;;;;;;;;;;;20.85;61.75;100249.22;5159404;27;816;-48
2021/08/02 04:58:02;;;;;;;;;;;;;;;21.08;60.99;100255.53;5158463;27;1027;-44
2021/08/02 05:00:27;;;;;;;;;;;;;;;21.15;60.53;100258.69;5158605;27;805;-42
2021/08/02 05:02:53;;;;;;;;;;;;;;;20.83;61.83;100249.56;5158561;27;818;-43
2021/08/02 05:05:18;;;;;;;;;;;;;;;20.92;61.46;100251.56;5158682;27;1905;-44
2021/08/02 05:07:44;;;;;;;;;;;;;;;20.43;60.41;100256.88;5158660;27;767;-43
2021/08/02 05:10:09;;;;;;;;;;;;;;;20.40;60.51;100257.47;5158783;27;838;-46
2021/08/02 05:12:35;;;;;;;;;;;;;;;20.77;62.65;100247.22;5158184;27;965;-42
2021/08/02 05:15:07;;;;;;;;;;;;;;;20.87;62.52;100244.19;5158589;27;755;-43
2021/08/02 05:17:32;;;;;;;;;;;;;;;21.14;61.19;100245.16;5158638;27;759;-43
2021/08/02 05:19:58;;;;;;;;;;;;;;;20.85;62.10;100247.28;5158408;27;774;-42
2021/08/02 05:22:23;;;;;;;;;;;;;;;20.96;62.10;100233.22;5158300;27;763;-42
2021/08/02 05:24:49;;;;;;;;;;;;;;;20.71;60.98;100235.50;5158440;27;1965;-44
2021/08/02 05:27:14;;;;;;;;;;;;;;;20.15;59.99;100232.09;5158388;27;1016;-42
2021/08/02 05:29:40;;;;;;;;;;;;;;;20.81;62.30;100243.50;5158330;27;771;-47
2021/08/02 05:32:05;;;;;;;;;;;;;;;21.17;61.84;100236.25;5158410;27;1531;-43
2021/08/02 05:34:31;;;;;;;;;;;;;;;21.29;61.07;100232.88;5158146;27;859;-43
2021/08/02 05:36:56;;;;;;;;;;;;;;;21.18;61.50;100233.16;5158455;27;798;-46
2021/08/02 05:39:21;;;;;;;;;;;;;;;20.99;62.21;100232.56;5158570;27;767;-43
2021/08/02 05:41:47;;;;;;;;;;;;;;;20.52;61.10;100228.19;5157483;27;921;-47
2021/08/02 05:44:12;;;;;;;;;;;;;;;20.43;60.46;100223.72;5158309;27;1913;-43
2021/08/02 05:46:38;;;;;;;;;;;;;;;20.89;62.69;100225.38;5158137;27;850;-44
2021/08/02 05:49:03;;;;;;;;;;;;;;;21.28;61.82;100228.47;5158244;27;786;-44
2021/08/02 05:51:29;;;;;;;;;;;;;;;21.30;61.34;100231.75;5140318;27;1217;-43
2021/08/02 05:53:56;;;;;;;;;;;;;;;21.00;62.47;100236.97;5149450;27;1199;-43
2021/08/02 05:56:21;;;;;;;;;;;;;;;20.87;62.71;100232.34;5137050;27;1001;-43
2021/08/02 05:58:47;;;;;;;;;;;;;;;20.55;59.82;100231.44;5137263;27;766;-42
2021/08/02 06:01:12;;;;;;;;;;;;;;;20.85;61.35;100235.41;5137141;27;818;-43
2021/08/02 06:03:38;;;;;;;;;;;;;;;21.06;62.72;100235.69;5137198;28;1992;-42
2021/08/02 06:06:03;;;;;;;;;;;;;;;21.29;62.01;100244.72;5147010;27;1650;-42
2021/08/02 06:08:28;;;;;;;;;;;;;;;21.24;61.95;100239.38;5157675;27;780;-43
2021/08/02 06:10:54;;;;;;;;;;;;;;;20.84;63.10;100237.34;5157568;27;755;-43
2021/08/02 06:13:19;;;;;;;;;;;;;;;20.86;62.71;100237.06;5157684;27;961;-42
2021/08/02 06:15:46;;;;;;;;;;;;;;;20.34;60.38;100227.22;5158239;27;822;-43
2021/08/02 06:18:11;;;;;;;;;;;;;;;20.67;62.39;100237.22;5157774;27;746;-43
2021/08/02 06:20:37;;;;;;;;;;;;;;;21.08;63.06;100230.66;5158070;27;783;-43
2021/08/02 06:23:04;;;;;;;;;;;;;;;21.28;62.33;100232.06;5151083;27;1097;-46
2021/08/02 06:25:29;;;;;;;;;;;;;;;21.26;62.19;100226.03;5144552;27;779;-47
2021/08/02 06:27:54;;;;;;;;;;;;;;;20.97;62.95;100230.13;5152797;27;957;-51
2021/08/02 06:30:20;;;;;;;;;;;;;;;21.04;62.66;100229.66;5157342;27;763;-44
2021/08/02 06:32:45;;;;;;;;;;;;;;;20.58;60.15;100226.13;5156817;27;814;-44
2021/08/02 06:35:11;;;;;;;;;;;;;;;20.99;61.09;100219.56;5158136;27;739;-41
2021/08/02 06:37:40;;;;;;;;;;;;;;;21.15;62.97;100222.75;5161015;27;739;-44
2021/08/02 06:40:07;;;;;;;;;;;;;;;21.48;61.95;100214.06;5161241;27;778;-47
2021/08/02 06:42:33;;;;;;;;;;;;;;;21.29;62.35;100210.75;5160999;27;969;-42
2021/08/02 06:44:58;;;;;;;;;;;;;;;21.01;63.27;100220.06;5160951;27;1909;-46
2021/08/02 06:47:24;;;;;;;;;;;;;;;20.96;62.31;100219.41;5160554;27;997;-44
2021/08/02 06:49:49;;;;;;;;;;;;;;;20.49;60.05;100222.47;5160784;27;739;-45
2021/08/02 06:52:15;;;;;;;;;;;;;;;20.98;61.82;100222.63;5160422;27;1071;-44
2021/08/02 06:54:41;;;;;;;;;;;;;;;21.30;62.83;100223.44;5160847;27;1180;-42
2021/08/02 06:57:06;;;;;;;;;;;;;;;21.50;62.00;100222.88;5160410;27;945;-43
2021/08/02 06:59:32;;;;;;;;;;;;;;;21.33;62.29;100214.50;5160237;27;851;-44
2021/08/02 07:01:57;;;;;;;;;;;;;;;21.06;63.19;100213.59;5160679;27;801;-43
2021/08/02 07:04:23;;;;;;;;;;;;;;;20.84;62.85;100206.94;5161291;27;1966;-44
2021/08/02 07:06:48;;;;;;;;;;;;;;;20.77;58.79;100212.13;5160227;27;1124;-44
2021/08/02 07:09:14;;;;;;;;;;;;;;;20.56;60.86;100211.78;5160515;27;782;-45
2021/08/02 07:11:39;;;;;;;;;;;;;;;21.12;62.30;100212.28;5159826;27;973;-45
2021/08/02 07:14:05;;;;;;;;;;;;;;;21.31;62.89;100214.81;5160481;27;571;-44
2021/08/02 07:16:30;;;;;;;;;;;;;;;21.70;61.63;100210.41;5161018;27;829;-42
2021/08/02 07:18:56;;;;;;;;;;;;;;;21.25;62.88;100210.59;5141501;27;1024;-46
2021/08/02 07:21:21;;;;;;;;;;;;;;;21.19;62.87;100215.41;5139609;27;818;-44
2021/08/02 07:23:47;;;;;;;;;;;;;;;20.81;61.94;100215.88;5139450;27;1914;-45
2021/08/02 07:26:13;;;;;;;;;;;;;;;20.33;59.48;100214.56;5138934;27;934;-43
2021/08/02 07:28:39;;;;;;;;;;;;;;;20.90;61.74;100215.13;5119957;27;1268;-46
2021/08/02 07:31:04;;;;;;;;;;;;;;;21.33;61.89;100212.53;5138703;27;1118;-46
2021/08/02 07:33:30;;;;;;;;;;;;;;;21.25;61.44;100207.00;5135913;27;1253;-44
2021/08/02 07:35:56;;;;;;;;;;;;;;;21.35;60.36;100209.50;5139079;27;1264;-46
2021/08/02 07:38:21;;;;;;;;;;;;;;;20.90;61.00;100209.59;5120802;27;1209;-48
2021/08/02 07:40:47;;;;;;;;;;;;;;;20.77;61.31;100211.31;5137656;27;1157;-49
2021/08/02 07:43:12;;;;;;;;;;;;;;;20.12;59.68;100214.22;5137892;27;1909;-40
2021/08/02 07:45:38;;;;;;;;;;;;;;;20.44;60.11;100215.13;5121182;27;1133;-41
2021/08/02 07:48:03;;;;;;;;;;;;;;;20.74;61.23;100212.75;5138740;27;778;-47
2021/08/02 07:50:29;;;;;;;;;;;;;;;20.85;60.42;100222.41;5119930;27;1267;-47
2021/08/02 07:52:54;;;;;;;;;;;;;;;21.09;59.35;100223.19;5138659;27;863;-41
2021/08/02 07:55:20;;;;;;;;;;;;;;;21.28;58.73;100217.41;5138796;27;1177;-43
2021/08/02 07:57:45;;;;;;;;;;;;;;;20.98;59.64;100220.69;5153914;27;1011;-46
2021/08/02 08:00:11;;;;;;;;;;;;;;;20.83;60.07;100216.41;5159283;27;759;-41
2021/08/02 08:02:38;;;;;;;;;;;;;;;20.34;59.00;100226.41;5158935;27;795;-47
2021/08/02 08:05:03;;;;;;;;;;;;;;;20.22;60.04;100223.41;5159556;27;1984;-44
2021/08/02 08:07:29;;;;;;;;;;;;;;;20.63;61.01;100227.94;5139691;27;1205;-47
2021/08/02 08:09:54;;;;;;;;;;;;;;;20.86;60.00;100220.47;5129863;27;1145;-44
2021/08/02 08:12:20;;;;;;;;;;;;;;;21.05;59.10;100214.72;5138747;27;1446;-46
2021/08/02 08:14:45;;;;;;;;;;;;;;;20.79;59.78;100220.91;5138343;27;875;-48
2021/08/02 08:17:14;;;;;;;;;;;;;;;20.72;60.13;100211.44;5138228;27;759;-46
2021/08/02 08:19:40;;;;;;;;;;;;;;;20.49;59.56;100203.13;5137803;27;1014;-49
2021/08/02 08:22:05;;;;;;;;;;;;;;;19.91;59.40;100204.75;5138342;27;827;-51
2021/08/02 08:24:31;;;;;;;;;;;;;;;20.40;61.78;100200.31;5120219;27;1917;-47
2021/08/02 08:26:56;;;;;;;;;;;;;;;20.73;61.05;100202.81;5137694;27;989;-45
2021/08/02 08:29:22;;;;;;;;;;;;;;;20.97;59.98;100202.50;5137392;27;774;-48
2021/08/02 08:31:47;;;;;;;;;;;;;;;20.90;60.42;100195.78;5137054;27;1120;-42
2021/08/02 08:34:12;;;;;;;;;;;;;;;20.85;60.70;100196.72;5137407;27;1236;-42
2021/08/02 08:36:38;;;;;;;;;;;;;;;20.62;59.35;100187.63;5137851;27;1366;-46
2021/08/02 08:39:04;;;;;;;;;;;;;;;20.54;60.67;100182.84;5137322;27;831;-40
2021/08/02 08:41:29;;;;;;;;;;;;;;;20.87;61.33;100182.59;5137284;27;953;-46
2021/08/02 08:43:55;;;;;;;;;;;;;;;20.94;60.97;100183.75;5137609;27;1905;-44
2021/08/02 08:46:21;;;;;;;;;;;;;;;21.04;60.65;100182.66;5138004;27;739;-44
2021/08/02 08:48:46;;;;;;;;;;;;;;;20.70;61.72;100180.56;5137622;27;771;-47
2021/08/02 08:51:12;;;;;;;;;;;;;;;20.80;61.15;100170.06;5138053;27;817;-47
2021/08/02 08:53:37;;;;;;;;;;;;;;;20.34;59.43;100176.69;5138192;27;983;-41
2021/08/02 08:56:03;;;;;;;;;;;;;;;20.74;60.83;100179.59;5136640;27;933;-45
2021/08/02 08:58:28;;;;;;;;;;;;;;;20.82;62.08;100170.53;5157568;27;770;-45
2021/08/02 09:01:00;;;;;;;;;;;;;;;21.15;60.60;100161.09;5158458;27;751;-50
2021/08/02 09:03:27;;;;;;;;;;;;;;;20.85;61.51;100169.09;5139673;27;1917;-46
2021/08/02 09:05:59;;;;;;;;;;;;;;;20.90;61.53;100168.97;5158384;27;1140;-42
2021/08/02 09:08:24;;;;;;;;;;;;;;;20.61;60.76;100174.97;5158000;27;881;-47
2021/08/02 09:10:57;;;;;;;;;;;;;;;20.13;59.17;100168.94;5157784;27;837;-44
2021/08/02 09:13:32;;;;;;;;;;;;;;;20.55;62.69;100173.44;5157673;27;862;-49
2021/08/02 09:15:58;;;;;;;;;;;;;;;20.86;61.89;100167.97;5158507;27;801;-46
2021/08/02 09:18:23;;;;;;;;;;;;;;;21.12;60.95;100161.72;5157751;27;799;-51
2021/08/02 09:20:59;;;;;;;;;;;;;;;20.87;61.67;100172.34;5157762;27;770;-45
2021/08/02 09:23:24;;;;;;;;;;;;;;;20.89;61.59;100161.81;5157624;27;1917;-45
2021/08/02 09:25:50;;;;;;;;;;;;;;;20.48;60.01;100168.34;5139564;27;763;-52
2021/08/02 09:28:17;;;;;;;;;;;;;;;19.96;59.35;100158.56;5157359;27;1000;-44
2021/08/02 09:31:09;;;;;;;;;;;;;;;20.50;62.29;100155.88;5157442;27;739;-41
2021/08/02 09:33:44;;;;;;;;;;;;;;;20.85;62.66;100164.38;5153260;27;1519;-48
2021/08/02 09:36:09;;;;;;;;;;;;;;;21.05;61.44;100161.38;5142972;27;1528;-43
2021/08/02 09:38:35;;;;;;;;;;;;;;;20.98;61.46;100156.31;5137168;27;700;-44
2021/08/02 09:41:01;;;;;;;;;;;;;;;20.95;61.63;100165.25;5136257;27;1032;-41
2021/08/02 09:43:27;;;;;;;;;;;;;;;20.75;60.79;100158.28;5136790;27;1917;-40
2021/08/02 09:45:55;;;;;;;;;;;;;;;20.45;59.04;100155.19;5136514;27;810;-41
2021/08/02 09:48:21;;;;;;;;;;;;;;;20.78;62.31;100155.72;5136697;27;804;-43
2021/08/02 09:50:47;;;;;;;;;;;;;;;21.00;61.62;100154.88;5136653;27;822;-42
2021/08/02 09:53:19;;;;;;;;;;;;;;;21.19;60.92;100151.81;5136939;27;1161;-42
2021/08/02 09:55:45;;;;;;;;;;;;;;;21.00;61.30;100156.81;5133886;27;898;-51
2021/08/02 09:58:12;;;;;;;;;;;;;;;21.13;61.12;100158.66;5115865;27;1045;-48
2021/08/02 10:00:38;;;;;;;;;;;;;;;20.47;59.61;100159.25;5136036;27;1152;-49
2021/08/02 10:03:03;;;;;;;;;;;;;;;20.63;60.96;100158.88;5136068;27;1272;-45
2021/08/02 10:05:29;;;;;;;;;;;;;;;20.97;61.96;100143.63;5140958;27;1968;-49
2021/08/02 10:07:54;;;;;;;;;;;;;;;21.23;61.00;100142.91;5157475;27;763;-50
2021/08/02 10:10:19;;;;;;;;;;;;;;;21.39;60.26;100151.56;5140367;27;1141;-47
2021/08/02 10:12:46;;;;;;;;;;;;;;;21.28;60.57;100140.81;5159852;27;1135;-49
2021/08/02 10:15:15;;;;;;;;;;;;;;;21.18;60.86;100132.78;5160772;27;1307;-49
2021/08/02 10:17:43;;;;;;;;;;;;;;;21.08;60.92;100138.63;5160485;27;1164;-46
2021/08/02 10:20:35;;;;;;;;;;;;;;;20.58;59.29;100140.50;5142314;27;1068;-42
2021/08/02 10:23:01;;;;;;;;;;;;;;;20.49;60.50;100134.88;5156061;27;1453;-48
2021/08/02 10:25:31;;;;;;;;;;;;;;;20.99;61.45;100130.31;5161022;27;1981;-42
2021/08/02 10:28:04;;;;;;;;;;;;;;;20.93;61.87;100131.56;5160716;27;1004;-52
2021/08/02 10:30:29;;;;;;;;;;;;;;;21.16;60.66;100124.81;5161739;27;818;-43
2021/08/02 10:32:55;;;;;;;;;;;;;;;20.98;60.71;100129.47;5161445;27;763;-50
2021/08/02 10:35:50;;;;;;;;;;;;;;;20.83;61.05;100122.44;5161121;27;846;-42
2021/08/02 10:38:16;;;;;;;;;;;;;;;20.36;59.37;100141.31;5139182;27;1300;-43
2021/08/02 10:40:49;;;;;;;;;;;;;;;20.04;59.88;100132.16;5142668;27;1117;-56
2021/08/02 10:43:27;;;;;;;;;;;;;;;20.50;63.01;100131.00;5159062;27;1985;-43
2021/08/02 10:45:52;;;;;;;;;;;;;;;20.65;62.83;100138.09;5161291;27;850;-52
2021/08/02 10:48:21;;;;;;;;;;;;;;;20.97;61.13;100133.41;5160927;27;858;-53
2021/08/02 10:50:47;;;;;;;;;;;;;;;20.77;61.54;100140.28;5160908;27;770;-48
2021/08/02 10:53:12;;;;;;;;;;;;;;;20.96;60.60;100130.94;5142164;27;1125;-55
2021/08/02 10:55:52;;;;;;;;;;;;;;;20.46;59.17;100135.53;5160834;27;770;-54
2021/08/02 10:58:27;;;;;;;;;;;;;;;20.52;60.35;100138.97;5160376;27;961;-58
2021/08/02 11:00:59;;;;;;;;;;;;;;;20.82;61.38;100137.38;5161388;27;807;-46
2021/08/02 11:03:28;;;;;;;;;;;;;;;21.03;60.26;100134.88;5159374;27;1905;-46
2021/08/02 11:05:54;;;;;;;;;;;;;;;20.95;60.20;100129.31;5158133;27;1209;-48
2021/08/02 11:08:19;;;;;;;;;;;;;;;20.79;60.80;100126.13;5160483;27;747;-40
2021/08/02 11:10:45;;;;;;;;;;;;;;;20.85;60.12;100133.19;5159901;27;1022;-42
2021/08/02 11:13:10;;;;;;;;;;;;;;;20.26;58.54;100131.34;5158408;27;1268;-43
2021/08/02 11:15:42;;;;;;;;;;;;;;;20.64;60.92;100138.41;5141943;27;814;-45
2021/08/02 11:18:07;;;;;;;;;;;;;;;20.94;60.15;100127.69;5160103;27;802;-45
2021/08/02 11:20:33;;;;;;;;;;;;;;;21.00;59.68;100137.47;5160109;27;747;-41
2021/08/02 11:22:59;;;;;;;;;;;;;;;20.78;60.22;100128.09;5159967;27;668;-41
2021/08/02 11:25:25;;;;;;;;;;;;;;;20.83;60.11;100130.72;5159568;27;1963;-44
2021/08/02 11:27:51;;;;;;;;;;;;;;;20.34;59.40;100121.47;5159710;27;993;-40
2021/08/02 11:30:17;;;;;;;;;;;;;;;20.14;60.49;100128.34;5160359;27;751;-50
2021/08/02 11:32:43;;;;;;;;;;;;;;;20.52;61.57;100126.00;5160474;27;862;-45
2021/08/02 11:35:08;;;;;;;;;;;;;;;20.77;60.63;100114.59;5160383;27;758;-41
2021/08/02 11:37:34;;;;;;;;;;;;;;;20.93;59.74;100124.09;5160410;27;814;-43
2021/08/02 11:40:00;;;;;;;;;;;;;;;20.79;60.21;100124.22;5141464;27;1114;-46
2021/08/02 11:42:27;;;;;;;;;;;;;;;20.93;59.73;100126.88;5158795;27;1343;-40
2021/08/02 11:44:53;;;;;;;;;;;;;;;20.42;59.24;100120.72;5159804;27;1914;-43
2021/08/02 11:47:31;;;;;;;;;;;;;;;20.04;58.32;100123.06;5159853;27;1269;-46
2021/08/02 11:49:56;;;;;;;;;;;;;;;20.40;61.88;100124.91;5140289;27;1190;-42
2021/08/02 11:52:23;;;;;;;;;;;;;;;20.73;61.88;100117.19;5141146;27;874;-43
2021/08/02 11:54:58;;;;;;;;;;;;;;;21.10;59.88;100126.13;5160272;27;1279;-47
2021/08/02 11:57:23;;;;;;;;;;;;;;;21.08;59.88;100117.31;5159792;27;956;-45
2021/08/02 12:00:01;;;;;;;;;;;;;;;20.93;60.11;100126.03;5160055;27;762;-45
2021/08/02 12:02:33;;;;;;;;;;;;;;;20.88;59.13;100118.72;5160065;27;826;-44
2021/08/02 12:04:59;;;;;;;;;;;;;;;20.46;57.33;100118.16;5160334;27;1905;-46
2021/08/02 12:07:26;;;;;;;;;;;;;;;20.52;60.59;100120.47;5159043;27;1027;-40
2021/08/02 12:09:51;;;;;;;;;;;;;;;20.77;62.26;100106.31;5160014;27;802;-41
2021/08/02 12:12:20;;;;;;;;;;;;;;;21.18;62.31;100117.03;5141014;27;1223;-54
2021/08/02 12:14:46;;;;;;;;;;;;;;;21.33;62.97;100115.75;5159793;27;813;-41
2021/08/02 12:17:11;;;;;;;;;;;;;;;21.30;64.18;100115.59;5159689;27;782;-39
2021/08/02 12:19:43;;;;;;;;;;;;;;;21.07;62.84;100115.72;5159094;27;1015;-41
2021/08/02 12:22:08;;;;;;;;;;;;;;;20.67;59.13;100113.75;5159743;27;726;-47
2021/08/02 12:24:34;;;;;;;;;;;;;;;20.38;60.84;100111.44;5159455;27;1897;-40
2021/08/02 12:26:59;;;;;;;;;;;;;;;20.46;61.75;100116.19;5158979;27;1024;-46
2021/08/02 12:29:28;;;;;;;;;;;;;;;20.64;60.84;100105.25;5159449;27;751;-50
2021/08/02 12:31:55;;;;;;;;;;;;;;;20.70;59.20;100111.50;5159880;27;739;-49
2021/08/02 12:34:21;;;;;;;;;;;;;;;20.60;58.14;100112.53;5158054;27;851;-39
2021/08/02 12:36:46;;;;;;;;;;;;;;;20.55;57.09;100112.66;5159346;27;794;-43
2021/08/02 12:39:12;;;;;;;;;;;;;;;20.79;55.74;100104.88;5159135;27;825;-40
2021/08/02 12:41:38;;;;;;;;;;;;;;;20.82;54.71;100101.47;5159307;27;992;-44
2021/08/02 12:44:03;;;;;;;;;;;;;;;20.58;55.30;100099.06;5159136;27;1987;-41
2021/08/02 12:46:29;;;;;;;;;;;;;;;20.81;54.58;100101.78;5140412;27;1107;-47
2021/08/02 12:48:54;;;;;;;;;;;;;;;20.82;53.83;100092.38;5159147;27;751;-40
2021/08/02 12:51:20;;;;;;;;;;;;;;;20.76;53.83;100094.47;5159749;27;812;-40
2021/08/02 12:53:45;;;;;;;;;;;;;;;20.77;53.66;100087.78;5158797;27;1126;-44